Time;durP1;ratioP1;P1;durP2;ratioP2;P2;SDS_P1;SDS_P2;PMS_P1;PMS_P2;Temp;Humidity;BMP_temperature;BMP_pressure;BME280_temperature;BME280_humidity;BME280_pressure;Samples;Min_cycle;Max_cycle;Signal;HPM_P1;HPM_P2
2021/04/06 00:00:22;;;;;;;7.05;1.65;;;0.20;80.90;;;;;;5072700;28;20286;-71
2021/04/06 00:02:52;;;;;;;3.17;1.42;;;0.20;81.70;;;;;;5073828;28;20241;-71
2021/04/06 00:05:20;;;;;;;2.63;1.25;;;0.10;82.40;;;;;;5069074;28;20261;-73
2021/04/06 00:07:48;;;;;;;5.82;1.60;;;0.10;82.80;;;;;;5069394;28;20188;-71
2021/04/06 00:10:30;;;;;;;5.93;1.52;;;0.10;83.10;;;;;;5074959;28;20253;-72
2021/04/06 00:12:58;;;;;;;5.90;1.85;;;0.00;83.10;;;;;;5075027;28;20188;-71
2021/04/06 00:15:26;;;;;;;1.80;1.50;;;-0.10;83.70;;;;;;5074339;28;20184;-73
2021/04/06 00:17:58;;;;;;;4.28;1.63;;;0.00;83.70;;;;;;5074267;28;20716;-71
2021/04/06 00:20:25;;;;;;;3.40;1.35;;;-0.10;83.70;;;;;;5075760;28;20329;-72
2021/04/06 00:22:52;;;;;;;10.70;2.05;;;-0.10;84.10;;;;;;5074519;28;20261;-73
2021/04/06 00:25:22;;;;;;;2.72;1.75;;;-0.10;82.50;;;;;;5076836;28;20307;-73
2021/04/06 00:27:51;;;;;;;2.95;1.88;;;0.00;81.70;;;;;;5081431;28;20180;-73
2021/04/06 00:30:23;;;;;;;4.30;1.60;;;0.00;81.90;;;;;;5076963;28;20183;-72
2021/04/06 00:33:09;;;;;;;4.55;2.00;;;0.00;83.00;;;;;;5077559;28;20183;-72
2021/04/06 00:35:37;;;;;;;9.05;2.80;;;0.00;83.80;;;;;;5073917;28;20268;-72
2021/04/06 00:38:07;;;;;;;6.13;1.65;;;-0.10;84.30;;;;;;5073899;28;20187;-73
2021/04/06 00:40:37;;;;;;;10.00;2.20;;;-0.10;84.40;;;;;;5072888;28;20275;-72
2021/04/06 00:43:06;;;;;;;5.72;1.70;;;-0.10;84.70;;;;;;5073558;28;20259;-72
2021/04/06 00:45:37;;;;;;;4.95;2.00;;;-0.10;85.00;;;;;;5073064;28;20211;-72
2021/04/06 00:48:16;;;;;;;7.93;2.22;;;-0.10;85.20;;;;;;5072418;28;20630;-73
2021/04/06 00:51:15;;;;;;;3.90;2.33;;;0.00;85.60;;;;;;5061656;28;20271;-73
2021/04/06 00:54:04;;;;;;;4.20;1.88;;;0.00;85.90;;;;;;5073553;28;20202;-73
2021/04/06 00:56:34;;;;;;;7.20;2.28;;;0.00;86.30;;;;;;5071648;28;20212;-73
2021/04/06 00:59:11;;;;;;;6.70;2.28;;;0.00;86.80;;;;;;5073195;28;20259;-72
2021/04/06 01:01:43;;;;;;;6.05;1.75;;;0.00;86.60;;;;;;5073174;28;20244;-73
2021/04/06 01:04:12;;;;;;;4.10;2.80;;;-0.10;85.70;;;;;;5073046;28;20194;-73
2021/04/06 01:07:02;;;;;;;5.50;2.20;;;-0.20;85.60;;;;;;5068290;28;20216;-72
2021/04/06 01:09:41;;;;;;;5.15;2.10;;;-0.10;85.90;;;;;;5068201;28;20237;-73
2021/04/06 01:12:09;;;;;;;5.20;2.33;;;-0.10;85.70;;;;;;5072633;28;20614;-72
2021/04/06 01:14:38;;;;;;;3.17;2.00;;;-0.10;85.90;;;;;;5067960;28;20216;-72
2021/04/06 01:17:06;;;;;;;2.72;1.98;;;-0.10;86.50;;;;;;5054340;28;20209;-72
2021/04/06 01:19:33;;;;;;;7.63;2.42;;;-0.20;87.10;;;;;;5069148;28;20196;-72
2021/04/06 01:22:01;;;;;;;3.83;2.63;;;-0.20;87.80;;;;;;5073337;28;20294;-72
2021/04/06 01:24:29;;;;;;;4.55;2.13;;;-0.20;88.10;;;;;;5072401;28;20207;-71
2021/04/06 01:26:56;;;;;;;7.82;3.17;;;-0.30;89.00;;;;;;5072555;28;20714;-72
2021/04/06 01:29:22;;;;;;;4.78;1.85;;;-0.30;88.90;;;;;;5072508;28;20827;-72
2021/04/06 01:31:50;;;;;;;6.95;2.28;;;-0.30;88.90;;;;;;5072453;28;20203;-72
2021/04/06 01:34:17;;;;;;;4.50;2.17;;;-0.30;87.60;;;;;;5070793;28;20676;-73
2021/04/06 01:36:45;;;;;;;5.70;2.22;;;-0.30;87.40;;;;;;5072406;28;20280;-71
2021/04/06 01:39:15;;;;;;;5.18;2.30;;;-0.30;88.00;;;;;;5067501;28;20663;-73
2021/04/06 01:41:45;;;;;;;9.38;2.60;;;-0.40;88.10;;;;;;5072061;28;20894;-73
2021/04/06 01:44:12;;;;;;;7.20;2.45;;;-0.40;88.70;;;;;;5072892;28;20183;-73
2021/04/06 01:46:43;;;;;;;7.50;2.45;;;-0.50;88.40;;;;;;5072534;28;20273;-73
2021/04/06 01:49:10;;;;;;;5.30;2.25;;;-0.50;88.90;;;;;;5075912;28;20195;-72
2021/04/06 01:51:38;;;;;;;3.72;2.28;;;-0.50;88.60;;;;;;5075153;28;20226;-74
2021/04/06 01:54:06;;;;;;;4.20;2.50;;;-0.50;88.60;;;;;;5072054;28;20222;-74
2021/04/06 01:56:38;;;;;;;5.43;2.20;;;-0.40;87.80;;;;;;5071358;28;20231;-73
2021/04/06 01:59:08;;;;;;;7.25;2.45;;;-0.40;86.50;;;;;;5070251;28;20690;-73
2021/04/06 02:01:35;;;;;;;7.22;2.35;;;-0.50;86.20;;;;;;5071660;28;20179;-72
2021/04/06 02:04:06;;;;;;;5.78;2.25;;;-0.50;86.80;;;;;;5070729;28;20210;-72
2021/04/06 02:06:34;;;;;;;4.80;2.55;;;-0.50;85.30;;;;;;5071298;28;20212;-72
2021/04/06 02:09:01;;;;;;;6.90;2.42;;;-0.50;84.00;;;;;;5071547;28;20614;-72
2021/04/06 02:11:33;;;;;;;6.45;2.08;;;-0.40;83.60;;;;;;5067024;28;20189;-72
2021/04/06 02:14:16;;;;;;;4.90;2.10;;;-0.40;83.70;;;;;;5067611;28;20180;-72
2021/04/06 02:16:55;;;;;;;4.00;2.30;;;-0.50;83.60;;;;;;5063912;28;20296;-72
2021/04/06 02:19:35;;;;;;;4.55;2.40;;;-0.50;83.60;;;;;;5067535;28;20196;-72
2021/04/06 02:22:03;;;;;;;10.48;1.98;;;-0.50;83.70;;;;;;5067018;28;20961;-72
2021/04/06 02:24:29;;;;;;;4.38;2.40;;;-0.50;84.00;;;;;;5070774;28;20192;-72
2021/04/06 02:27:20;;;;;;;5.20;2.70;;;-0.50;84.30;;;;;;5072330;28;20862;-72
2021/04/06 02:29:47;;;;;;;6.60;2.55;;;-0.60;84.40;;;;;;5059762;28;20206;-72
2021/04/06 02:32:17;;;;;;;4.07;2.55;;;-0.60;84.70;;;;;;5071968;28;20187;-72
2021/04/06 02:34:52;;;;;;;6.30;2.50;;;-0.60;84.90;;;;;;5071273;28;20184;-71
2021/04/06 02:37:19;;;;;;;4.80;2.40;;;-0.60;85.00;;;;;;5069712;28;20235;-72
2021/04/06 02:39:47;;;;;;;4.45;2.10;;;-0.70;84.90;;;;;;5070830;28;20188;-72
2021/04/06 02:42:22;;;;;;;4.90;2.10;;;-0.70;84.90;;;;;;5071352;28;20828;-71
2021/04/06 02:44:48;;;;;;;4.43;2.15;;;-0.70;85.00;;;;;;5071107;28;20193;-72
2021/04/06 02:47:15;;;;;;;3.42;2.20;;;-0.70;85.00;;;;;;5066360;28;20223;-72
2021/04/06 02:49:41;;;;;;;6.78;2.45;;;-0.70;84.60;;;;;;5062898;28;20271;-72
2021/04/06 02:52:08;;;;;;;9.43;2.97;;;-0.70;84.70;;;;;;5070943;28;20191;-71
2021/04/06 02:54:34;;;;;;;5.47;2.13;;;-0.70;84.90;;;;;;5070483;28;20195;-71
2021/04/06 02:56:59;;;;;;;8.68;2.22;;;-0.80;85.50;;;;;;5070911;28;20196;-71
2021/04/06 02:59:25;;;;;;;6.07;2.20;;;-0.70;84.70;;;;;;5070671;28;20236;-72
2021/04/06 03:01:58;;;;;;;6.93;2.40;;;-0.80;84.60;;;;;;5071564;28;20184;-73
2021/04/06 03:04:24;;;;;;;4.18;2.20;;;-0.80;84.30;;;;;;5071050;28;20471;-72
2021/04/06 03:06:55;;;;;;;6.43;2.65;;;-0.80;84.60;;;;;;5071121;28;20212;-73
2021/04/06 03:09:23;;;;;;;3.55;2.13;;;-0.70;84.70;;;;;;5071721;28;20187;-73
2021/04/06 03:11:51;;;;;;;4.45;2.25;;;-0.70;84.00;;;;;;5075542;28;20199;-73
2021/04/06 03:14:21;;;;;;;4.85;2.55;;;-0.70;83.30;;;;;;5071749;28;20238;-71
2021/04/06 03:16:50;;;;;;;3.13;2.30;;;-0.70;83.40;;;;;;5064666;28;20651;-72
2021/04/06 03:19:16;;;;;;;5.80;1.80;;;-0.70;83.80;;;;;;5065904;28;20982;-73
2021/04/06 03:21:42;;;;;;;4.88;2.83;;;-0.60;84.00;;;;;;5073590;28;20184;-72
2021/04/06 03:24:09;;;;;;;2.72;2.05;;;-0.70;83.70;;;;;;5073143;28;20582;-73
2021/04/06 03:26:36;;;;;;;3.58;2.38;;;-0.70;83.70;;;;;;5071840;28;20212;-73
2021/04/06 03:29:03;;;;;;;5.28;2.20;;;-0.70;83.60;;;;;;5070215;28;20760;-71
2021/04/06 03:31:33;;;;;;;7.47;2.65;;;-0.70;83.40;;;;;;5070487;28;20273;-74
2021/04/06 03:34:01;;;;;;;5.43;2.28;;;-0.70;83.30;;;;;;5066481;28;20198;-72
2021/04/06 03:36:33;;;;;;;4.20;2.15;;;-0.70;83.30;;;;;;5064651;28;20201;-73
2021/04/06 03:39:05;;;;;;;3.20;2.50;;;-0.70;83.70;;;;;;5064458;28;20321;-73
2021/04/06 03:41:33;;;;;;;8.60;2.78;;;-0.70;83.70;;;;;;5063660;28;20230;-72
2021/04/06 03:44:06;;;;;;;4.00;2.70;;;-0.70;83.40;;;;;;5068802;28;20192;-73
2021/04/06 03:46:32;;;;;;;6.55;2.13;;;-0.60;83.70;;;;;;5064856;28;20769;-74
2021/04/06 03:49:18;;;;;;;4.90;2.83;;;-0.70;83.40;;;;;;5053733;28;20176;-74
2021/04/06 03:51:51;;;;;;;7.75;2.95;;;-0.80;83.30;;;;;;5067496;28;20681;-72
2021/04/06 03:54:37;;;;;;;5.43;4.05;;;-0.80;83.60;;;;;;5073116;28;20283;-73
2021/04/06 03:57:22;;;;;;;5.20;2.40;;;-0.80;83.40;;;;;;5060888;28;20841;-72
2021/04/06 03:59:48;;;;;;;12.13;2.60;;;-0.80;83.40;;;;;;5069694;28;20215;-73
2021/04/06 04:02:14;;;;;;;6.63;3.28;;;-0.70;83.60;;;;;;5077198;28;20191;-72
2021/04/06 04:04:40;;;;;;;7.30;2.60;;;-0.70;83.60;;;;;;5073407;28;20192;-74
2021/04/06 04:07:09;;;;;;;12.57;2.87;;;-0.60;83.40;;;;;;5068945;28;20476;-74
2021/04/06 04:09:35;;;;;;;4.97;2.55;;;-0.70;82.80;;;;;;5069211;28;20425;-72
2021/04/06 04:12:01;;;;;;;7.90;3.60;;;-0.70;82.70;;;;;;5069839;28;20188;-73
2021/04/06 04:14:26;;;;;;;6.60;2.97;;;-0.60;83.10;;;;;;5069714;28;20208;-72
2021/04/06 04:16:55;;;;;;;5.37;3.10;;;-0.70;82.70;;;;;;5065285;28;20200;-72
2021/04/06 04:19:21;;;;;;;9.35;3.22;;;-0.70;82.50;;;;;;5073411;28;20211;-73
2021/04/06 04:21:47;;;;;;;7.30;3.13;;;-0.60;83.10;;;;;;5080031;28;20194;-71
2021/04/06 04:24:13;;;;;;;9.13;3.92;;;-0.60;82.70;;;;;;5070483;28;20625;-73
2021/04/06 04:26:39;;;;;;;6.00;3.17;;;-0.70;82.50;;;;;;5071334;28;20208;-72
2021/04/06 04:29:05;;;;;;;8.25;2.80;;;-0.60;82.70;;;;;;5070355;28;20187;-71
2021/04/06 04:31:30;;;;;;;7.83;3.07;;;-0.60;83.10;;;;;;5070896;28;20647;-71
2021/04/06 04:33:56;;;;;;;6.20;2.90;;;-0.60;82.80;;;;;;5070237;28;20457;-73
2021/04/06 04:36:22;;;;;;;4.90;2.90;;;-0.50;82.80;;;;;;5070803;28;20437;-72
2021/04/06 04:38:48;;;;;;;4.35;2.47;;;-0.50;82.80;;;;;;5070121;28;20525;-72
2021/04/06 04:41:14;;;;;;;10.70;3.10;;;-0.50;82.50;;;;;;5056093;28;20200;-72
2021/04/06 04:43:39;;;;;;;7.57;3.17;;;-0.50;82.40;;;;;;5069985;28;20195;-73
2021/04/06 04:46:05;;;;;;;9.00;3.30;;;-0.60;82.70;;;;;;5069191;28;20339;-72
2021/04/06 04:48:31;;;;;;;4.93;2.63;;;-0.60;83.10;;;;;;5073440;28;20188;-73
2021/04/06 04:50:56;;;;;;;8.00;3.10;;;-0.60;83.40;;;;;;5073448;28;20207;-74
2021/04/06 04:53:22;;;;;;;7.20;3.80;;;-0.60;83.30;;;;;;5073505;28;20226;-75
2021/04/06 04:55:48;;;;;;;5.40;3.17;;;-0.60;83.70;;;;;;5073922;28;20295;-75
2021/04/06 04:58:14;;;;;;;7.50;3.13;;;-0.50;84.00;;;;;;5074452;28;20180;-77
2021/04/06 05:00:39;;;;;;;4.47;2.90;;;-0.50;83.30;;;;;;5072324;28;20188;-75
2021/04/06 05:03:05;;;;;;;7.60;3.17;;;-0.50;83.70;;;;;;5073887;28;20184;-74
2021/04/06 05:05:31;;;;;;;7.23;3.30;;;-0.40;83.60;;;;;;5073167;28;20207;-74
2021/04/06 05:07:57;;;;;;;7.10;3.00;;;-0.40;83.40;;;;;;5073563;28;20259;-75
2021/04/06 05:10:22;;;;;;;17.20;3.97;;;-0.40;83.60;;;;;;5073656;28;20244;-74
2021/04/06 05:12:48;;;;;;;7.87;3.33;;;-0.30;84.00;;;;;;5073141;28;20184;-74
2021/04/06 05:15:15;;;;;;;6.35;3.00;;;-0.30;83.80;;;;;;5073007;28;20184;-73
2021/04/06 05:17:41;;;;;;;11.30;4.20;;;-0.30;84.10;;;;;;5072090;28;20215;-72
2021/04/06 05:20:08;;;;;;;9.93;3.35;;;-0.30;84.30;;;;;;5072283;28;20180;-72
2021/04/06 05:22:35;;;;;;;11.73;3.95;;;-0.30;84.60;;;;;;5071762;28;20183;-73
2021/04/06 05:25:01;;;;;;;10.48;4.25;;;-0.40;84.40;;;;;;5072704;28;20294;-73
2021/04/06 05:27:26;;;;;;;6.93;3.70;;;-0.40;85.00;;;;;;5073124;28;20294;-72
2021/04/06 05:29:53;;;;;;;12.57;3.97;;;-0.40;84.60;;;;;;5072624;28;20401;-73
2021/04/06 05:32:18;;;;;;;8.52;3.45;;;-0.40;85.00;;;;;;5072890;28;20184;-71
2021/04/06 05:34:45;;;;;;;9.83;4.03;;;-0.40;85.50;;;;;;5072696;28;20179;-72
2021/04/06 05:37:10;;;;;;;8.15;3.50;;;-0.30;85.50;;;;;;5072649;28;20278;-72
2021/04/06 05:39:36;;;;;;;9.87;3.60;;;-0.30;85.00;;;;;;5072890;28;20211;-72
2021/04/06 05:42:02;;;;;;;8.67;3.40;;;-0.20;84.90;;;;;;5072377;28;20513;-72
2021/04/06 05:44:28;;;;;;;9.13;3.90;;;-0.20;84.90;;;;;;5072122;28;20192;-71
2021/04/06 05:46:58;;;;;;;9.82;3.25;;;-0.30;84.70;;;;;;5072323;28;20470;-73
2021/04/06 05:49:26;;;;;;;7.25;3.67;;;-0.20;84.90;;;;;;5072900;28;20191;-75
2021/04/06 05:51:54;;;;;;;9.50;4.10;;;-0.20;84.70;;;;;;5073238;28;20188;-74
2021/04/06 05:54:21;;;;;;;10.30;3.70;;;-0.30;84.60;;;;;;5073631;28;20271;-73
2021/04/06 05:56:47;;;;;;;6.15;3.50;;;-0.30;84.90;;;;;;5072282;28;20203;-74
2021/04/06 05:59:12;;;;;;;4.97;3.40;;;-0.20;85.20;;;;;;5074086;28;20274;-74
2021/04/06 06:01:40;;;;;;;5.70;3.30;;;-0.20;85.00;;;;;;5073679;28;20172;-74
2021/04/06 06:04:11;;;;;;;5.70;3.38;;;-0.10;84.90;;;;;;5072644;28;20191;-73
2021/04/06 06:06:37;;;;;;;5.90;3.72;;;-0.10;84.70;;;;;;5072231;28;20211;-73
2021/04/06 06:09:04;;;;;;;5.80;3.07;;;0.00;84.70;;;;;;5072611;28;20190;-74
2021/04/06 06:11:53;;;;;;;9.65;3.80;;;0.00;84.60;;;;;;5073691;28;20430;-73
2021/04/06 06:14:53;;;;;;;8.95;3.75;;;0.00;84.60;;;;;;5073760;28;20187;-74
2021/04/06 06:17:21;;;;;;;10.75;3.63;;;0.00;84.40;;;;;;5060645;28;20283;-72
2021/04/06 06:19:50;;;;;;;6.38;3.15;;;0.00;84.40;;;;;;5059418;28;20325;-73
2021/04/06 06:22:27;;;;;;;7.78;3.80;;;0.10;84.40;;;;;;5074707;28;20304;-73
2021/04/06 06:25:04;;;;;;;7.25;3.47;;;0.20;84.30;;;;;;5075354;28;20197;-74
2021/04/06 06:30:33;;;;;;;7.15;3.22;;;0.30;83.70;;;;;;5065519;28;20199;-73
2021/04/06 06:33:19;;;;;;;8.55;3.22;;;0.30;83.10;;;;;;5055538;28;20149;-72
2021/04/06 06:35:48;;;;;;;15.40;4.20;;;0.40;83.60;;;;;;5074379;28;20686;-73
2021/04/06 06:38:41;;;;;;;10.07;3.55;;;0.40;83.40;;;;;;5072967;28;20670;-72
2021/04/06 06:41:20;;;;;;;8.30;3.63;;;0.50;83.30;;;;;;5060115;28;20198;-74
2021/04/06 06:43:57;;;;;;;7.97;3.40;;;0.50;83.40;;;;;;5071155;28;20630;-74
2021/04/06 06:46:35;;;;;;;11.25;3.58;;;0.70;83.00;;;;;;5075555;28;20211;-74
2021/04/06 06:49:06;;;;;;;17.95;3.35;;;0.70;82.50;;;;;;5083951;28;20176;-73
2021/04/06 06:51:41;;;;;;;15.13;3.88;;;0.70;81.90;;;;;;5072497;28;20184;-72
2021/04/06 06:54:06;;;;;;;12.20;3.40;;;0.60;82.10;;;;;;5073012;28;20700;-73
2021/04/06 06:56:40;;;;;;;7.10;3.60;;;0.70;82.20;;;;;;5072754;28;20219;-74
2021/04/06 06:59:07;;;;;;;7.13;3.50;;;0.70;82.20;;;;;;5072176;28;20230;-74
2021/04/06 07:01:35;;;;;;;6.45;3.65;;;0.80;82.10;;;;;;5072815;28;20198;-72
2021/04/06 07:04:05;;;;;;;9.73;3.53;;;0.80;81.70;;;;;;5073125;28;20183;-72
2021/04/06 07:06:32;;;;;;;19.70;3.35;;;0.90;81.20;;;;;;5072532;28;21057;-72
2021/04/06 07:08:58;;;;;;;11.82;3.60;;;1.00;80.90;;;;;;5071548;28;20188;-73
2021/04/06 07:11:26;;;;;;;7.47;3.63;;;1.00;80.30;;;;;;5070231;28;20187;-72
2021/04/06 07:13:53;;;;;;;5.85;3.15;;;1.00;80.50;;;;;;5071113;28;20204;-73
2021/04/06 07:16:20;;;;;;;7.32;3.25;;;1.00;80.00;;;;;;5070469;28;20247;-73
2021/04/06 07:18:50;;;;;;;9.10;3.25;;;1.00;80.20;;;;;;5071560;28;20217;-73
2021/04/06 07:21:18;;;;;;;13.52;3.85;;;1.10;80.00;;;;;;5072063;28;20191;-72
2021/04/06 07:24:08;;;;;;;5.18;3.00;;;1.10;79.70;;;;;;5071485;28;20187;-72
2021/04/06 07:26:34;;;;;;;8.48;3.20;;;1.20;79.60;;;;;;5071279;28;20218;-73
2021/04/06 07:29:01;;;;;;;13.35;4.45;;;1.30;79.60;;;;;;5071841;28;20187;-73
2021/04/06 07:31:27;;;;;;;6.18;3.97;;;1.30;79.60;;;;;;5072569;28;20176;-73
2021/04/06 07:33:53;;;;;;;7.78;3.35;;;1.40;79.60;;;;;;5072477;28;20783;-73
2021/04/06 07:36:25;;;;;;;14.20;4.53;;;1.40;79.20;;;;;;5072481;28;20299;-72
2021/04/06 07:38:59;;;;;;;14.35;3.75;;;1.40;78.70;;;;;;5071769;28;20487;-73
2021/04/06 07:41:28;;;;;;;11.27;3.40;;;1.50;79.30;;;;;;5069960;28;20194;-73
2021/04/06 07:43:56;;;;;;;9.82;4.10;;;1.70;79.50;;;;;;5071154;28;20188;-73
2021/04/06 07:46:34;;;;;;;8.32;3.55;;;1.90;78.70;;;;;;5069869;28;20791;-73
2021/04/06 07:49:03;;;;;;;9.18;3.55;;;1.90;77.70;;;;;;5059958;28;20195;-74
2021/04/06 07:51:31;;;;;;;10.10;3.10;;;2.00;77.00;;;;;;5071059;28;20202;-75
2021/04/06 07:54:06;;;;;;;6.57;3.70;;;2.20;77.70;;;;;;5069203;28;20191;-74
2021/04/06 07:56:59;;;;;;;7.35;3.15;;;2.40;76.50;;;;;;5068620;28;20573;-76
2021/04/06 07:59:24;;;;;;;5.43;3.57;;;2.50;76.20;;;;;;5065413;28;20231;-75
2021/04/06 08:01:50;;;;;;;5.47;3.13;;;2.40;75.50;;;;;;5070172;28;20450;-73
2021/04/06 08:04:35;;;;;;;12.77;3.27;;;2.20;76.10;;;;;;5069903;28;20199;-74
2021/04/06 08:07:00;;;;;;;10.60;3.40;;;2.20;77.00;;;;;;5071862;28;20222;-72
2021/04/06 08:09:35;;;;;;;12.03;3.33;;;2.40;76.70;;;;;;5071906;28;20184;-72
2021/04/06 08:12:08;;;;;;;9.60;2.95;;;2.50;76.40;;;;;;5071525;28;20218;-73
2021/04/06 08:14:40;;;;;;;7.65;3.00;;;2.50;74.90;;;;;;5071532;28;20184;-75
2021/04/06 08:17:24;;;;;;;5.43;2.78;;;2.60;75.20;;;;;;5069593;28;20208;-75
2021/04/06 08:19:55;;;;;;;7.80;3.40;;;2.70;75.40;;;;;;5059074;28;20195;-74
2021/04/06 08:22:25;;;;;;;7.97;3.37;;;2.90;74.30;;;;;;5073758;28;20417;-74
2021/04/06 08:24:51;;;;;;;9.77;3.90;;;2.70;73.90;;;;;;5073554;28;20425;-73
2021/04/06 08:27:36;;;;;;;10.60;3.40;;;2.70;74.50;;;;;;5073571;28;20227;-73
2021/04/06 08:30:21;;;;;;;18.43;3.40;;;2.90;74.90;;;;;;5074173;28;20417;-73
2021/04/06 08:32:56;;;;;;;4.90;3.00;;;3.20;73.30;;;;;;5062818;28;20425;-74
2021/04/06 08:35:47;;;;;;;5.63;3.53;;;3.30;71.80;;;;;;5073443;28;20453;-72
2021/04/06 08:38:28;;;;;;;5.85;2.72;;;3.30;71.70;;;;;;5075667;28;20180;-73
2021/04/06 08:41:12;;;;;;;11.93;3.20;;;3.30;72.30;;;;;;5071584;28;20172;-73
2021/04/06 08:43:38;;;;;;;6.03;3.10;;;3.10;72.60;;;;;;5073945;28;20646;-73
2021/04/06 08:46:09;;;;;;;5.87;2.83;;;3.30;73.00;;;;;;5073095;28;20227;-73
2021/04/06 08:48:47;;;;;;;11.40;3.10;;;3.00;72.00;;;;;;5072392;28;20180;-73
2021/04/06 08:51:51;;;;;;;7.57;3.20;;;3.00;73.20;;;;;;5073143;28;20233;-72
2021/04/06 08:54:23;;;;;;;6.32;3.10;;;2.90;73.90;;;;;;4986156;28;20197;-72
2021/04/06 08:56:55;;;;;;;6.85;2.58;;;2.80;74.00;;;;;;5007196;28;20289;-73
2021/04/06 08:59:35;;;;;;;13.30;3.10;;;2.90;74.60;;;;;;4997459;28;20194;-73
2021/04/06 09:02:11;;;;;;;6.57;2.78;;;2.90;73.50;;;;;;5004672;28;20197;-74
2021/04/06 09:04:48;;;;;;;5.53;2.90;;;2.90;73.50;;;;;;4990915;28;20298;-73
2021/04/06 09:07:25;;;;;;;5.63;2.77;;;3.10;74.00;;;;;;4991269;28;20569;-72
2021/04/06 09:09:58;;;;;;;7.70;3.00;;;3.10;73.60;;;;;;4991102;28;20931;-74
2021/04/06 09:12:24;;;;;;;15.73;3.80;;;3.20;73.50;;;;;;5004684;28;20518;-74
2021/04/06 09:14:51;;;;;;;7.40;3.00;;;3.20;74.00;;;;;;5006416;28;20433;-73
2021/04/06 09:17:17;;;;;;;6.63;3.10;;;3.50;74.00;;;;;;5005228;28;20461;-73
2021/04/06 09:19:43;;;;;;;7.00;2.50;;;3.50;71.00;;;;;;5010318;28;20436;-73
2021/04/06 09:22:11;;;;;;;12.50;3.33;;;3.50;71.40;;;;;;4981761;28;20238;-72
2021/04/06 09:24:38;;;;;;;4.87;2.97;;;3.40;72.00;;;;;;5017900;28;20684;-73
2021/04/06 09:27:05;;;;;;;6.33;3.10;;;3.40;72.00;;;;;;5072685;28;20549;-74
2021/04/06 09:29:39;;;;;;;7.53;2.80;;;3.50;70.40;;;;;;5071431;28;20480;-73
2021/04/06 09:32:13;;;;;;;5.53;2.30;;;3.60;70.40;;;;;;5070890;28;20988;-73
2021/04/06 09:34:42;;;;;;;6.03;2.70;;;3.50;69.90;;;;;;5067015;28;21021;-73
2021/04/06 09:37:20;;;;;;;5.23;2.53;;;3.50;69.80;;;;;;5068401;28;20453;-73
2021/04/06 09:39:57;;;;;;;6.43;2.37;;;3.50;70.40;;;;;;5068995;28;20482;-73
2021/04/06 09:42:24;;;;;;;14.10;3.07;;;3.50;69.90;;;;;;5072280;28;20465;-73
2021/04/06 09:44:51;;;;;;;11.30;2.70;;;3.60;70.50;;;;;;5072467;28;20471;-73
2021/04/06 09:47:22;;;;;;;6.90;2.40;;;3.50;70.40;;;;;;5072647;28;20232;-73
2021/04/06 09:49:54;;;;;;;5.03;2.57;;;3.40;69.20;;;;;;5071779;28;20444;-73
2021/04/06 09:52:24;;;;;;;6.32;2.45;;;3.50;70.10;;;;;;5072064;28;20438;-73
2021/04/06 09:54:53;;;;;;;2.60;2.00;;;3.30;69.50;;;;;;5070597;28;20185;-73
2021/04/06 09:57:20;;;;;;;4.80;2.30;;;3.50;70.10;;;;;;5073669;28;20218;-73
2021/04/06 09:59:53;;;;;;;9.70;2.43;;;3.70;69.20;;;;;;5071420;28;20196;-73
2021/04/06 10:02:24;;;;;;;6.07;2.70;;;4.00;67.20;;;;;;5072763;28;20762;-74
2021/04/06 10:04:51;;;;;;;10.60;2.20;;;3.90;66.40;;;;;;5072322;28;20422;-74
2021/04/06 10:07:22;;;;;;;8.13;2.57;;;3.90;67.20;;;;;;5072513;28;21169;-73
2021/04/06 10:09:54;;;;;;;6.50;2.60;;;4.10;67.30;;;;;;5067729;28;20430;-73
2021/04/06 10:12:22;;;;;;;11.20;2.80;;;3.90;66.00;;;;;;5066930;28;20436;-74
2021/04/06 10:14:49;;;;;;;5.53;2.60;;;3.60;66.40;;;;;;5074300;28;20441;-74
2021/04/06 10:17:18;;;;;;;5.10;2.17;;;3.50;66.60;;;;;;5071943;28;20442;-73
2021/04/06 10:19:57;;;;;;;2.93;2.10;;;3.50;67.20;;;;;;5071054;28;20825;-72
2021/04/06 10:22:25;;;;;;;7.18;3.28;;;3.70;67.50;;;;;;5071666;28;20418;-74
2021/04/06 10:24:59;;;;;;;4.90;2.92;;;3.70;66.30;;;;;;5073796;28;20187;-71
2021/04/06 10:27:29;;;;;;;7.32;2.80;;;3.70;65.80;;;;;;5077299;28;20722;-72
2021/04/06 10:30:00;;;;;;;8.47;3.10;;;3.70;65.60;;;;;;5076947;28;20184;-74
2021/04/06 10:32:27;;;;;;;6.35;2.40;;;3.90;65.30;;;;;;5071098;28;20422;-72
2021/04/06 10:35:14;;;;;;;5.03;2.25;;;3.80;64.10;;;;;;5071721;28;20235;-73
2021/04/06 10:37:54;;;;;;;6.90;2.77;;;3.80;62.60;;;;;;5059371;28;20283;-73
2021/04/06 10:40:20;;;;;;;15.15;2.85;;;3.70;63.20;;;;;;5066833;28;20426;-74
2021/04/06 10:42:50;;;;;;;11.15;3.60;;;3.50;62.90;;;;;;5071004;28;20194;-73
2021/04/06 10:45:18;;;;;;;5.55;2.60;;;3.10;64.10;;;;;;5069771;28;20291;-73
2021/04/06 10:47:44;;;;;;;8.17;2.90;;;3.30;65.10;;;;;;5070090;28;20195;-73
2021/04/06 10:50:11;;;;;;;7.50;2.90;;;3.50;65.00;;;;;;5070722;28;20784;-74
2021/04/06 10:52:37;;;;;;;7.43;2.63;;;3.70;64.20;;;;;;5066926;28;20203;-73
2021/04/06 10:55:06;;;;;;;6.20;2.30;;;4.00;62.90;;;;;;5070741;28;20445;-73
2021/04/06 10:57:35;;;;;;;7.43;2.67;;;4.30;63.10;;;;;;5074459;28;20453;-73
2021/04/06 11:00:24;;;;;;;6.70;3.10;;;4.70;62.20;;;;;;5077518;28;20418;-72
2021/04/06 11:03:13;;;;;;;5.00;2.70;;;4.80;60.70;;;;;;5073970;28;20428;-73
2021/04/06 11:05:39;;;;;;;7.10;3.20;;;4.80;59.90;;;;;;5069908;28;20902;-73
2021/04/06 11:08:19;;;;;;;9.70;2.90;;;4.40;61.60;;;;;;5071474;28;20429;-74
2021/04/06 11:10:45;;;;;;;6.33;2.70;;;4.40;60.30;;;;;;5070426;28;20508;-73
2021/04/06 11:13:11;;;;;;;6.00;2.63;;;4.30;60.30;;;;;;5069178;28;20465;-75
2021/04/06 11:15:38;;;;;;;6.40;2.70;;;4.10;60.70;;;;;;5069580;28;20438;-73
2021/04/06 11:18:03;;;;;;;15.20;2.53;;;4.20;61.50;;;;;;5061445;28;20414;-74
2021/04/06 11:20:29;;;;;;;6.33;2.67;;;4.30;60.40;;;;;;5074337;28;20421;-72
2021/04/06 11:22:55;;;;;;;9.73;3.73;;;4.10;61.20;;;;;;5077654;28;20421;-73
2021/04/06 11:25:21;;;;;;;5.00;2.43;;;4.10;61.60;;;;;;5075795;28;20182;-72
2021/04/06 11:27:47;;;;;;;8.47;2.37;;;4.00;60.70;;;;;;5074240;28;20468;-73
2021/04/06 11:30:13;;;;;;;3.47;2.00;;;4.00;59.10;;;;;;5072556;28;20651;-73
2021/04/06 11:32:39;;;;;;;5.00;1.70;;;4.20;57.40;;;;;;5072472;28;20206;-73
2021/04/06 11:35:05;;;;;;;5.67;2.00;;;4.40;57.20;;;;;;5071423;28;20418;-73
2021/04/06 11:37:31;;;;;;;5.60;2.10;;;4.40;55.40;;;;;;5071110;28;20784;-73
2021/04/06 11:39:58;;;;;;;4.87;2.47;;;4.50;54.80;;;;;;5068526;28;20414;-72
2021/04/06 11:42:24;;;;;;;8.70;2.73;;;4.70;55.20;;;;;;5074796;28;20187;-72
2021/04/06 11:44:50;;;;;;;5.70;2.30;;;4.70;56.20;;;;;;5073237;28;20476;-73
2021/04/06 11:47:16;;;;;;;14.43;3.80;;;4.70;56.60;;;;;;5069973;28;20470;-74
2021/04/06 11:49:42;;;;;;;5.07;2.63;;;4.70;56.60;;;;;;5070433;28;20292;-74
2021/04/06 11:52:08;;;;;;;6.27;2.70;;;4.50;57.00;;;;;;5070497;28;20446;-72
2021/04/06 11:54:34;;;;;;;12.87;2.80;;;4.30;57.70;;;;;;5071880;28;20425;-74
2021/04/06 11:57:00;;;;;;;8.40;2.30;;;4.20;58.00;;;;;;5074745;28;20452;-72
2021/04/06 11:59:26;;;;;;;8.30;2.63;;;4.00;58.90;;;;;;5074003;28;20509;-74
2021/04/06 12:01:51;;;;;;;5.73;2.07;;;4.10;58.80;;;;;;5074227;28;20480;-74
2021/04/06 12:04:17;;;;;;;3.37;1.90;;;4.20;57.60;;;;;;5073915;28;20777;-73
2021/04/06 12:06:43;;;;;;;4.67;2.37;;;4.00;56.50;;;;;;5073745;28;20219;-73
2021/04/06 12:09:10;;;;;;;7.37;2.60;;;3.90;56.80;;;;;;5073562;28;20254;-73
2021/04/06 12:11:36;;;;;;;5.93;2.37;;;4.00;55.60;;;;;;5074229;28;20422;-75
2021/04/06 12:14:03;;;;;;;3.47;2.20;;;4.50;54.60;;;;;;5073745;28;20426;-73
2021/04/06 12:16:29;;;;;;;8.30;2.90;;;4.70;53.20;;;;;;5067002;28;20450;-73
2021/04/06 12:18:54;;;;;;;5.83;2.63;;;4.50;54.50;;;;;;5064891;28;20472;-73
2021/04/06 12:21:20;;;;;;;6.23;2.80;;;4.70;54.60;;;;;;5073851;28;20211;-74
2021/04/06 12:23:46;;;;;;;4.30;2.27;;;5.10;54.80;;;;;;5073911;28;20266;-74
2021/04/06 12:26:12;;;;;;;6.93;2.47;;;5.30;53.40;;;;;;5073430;28;20461;-73
2021/04/06 12:28:38;;;;;;;7.63;2.43;;;5.20;53.70;;;;;;5073388;28;20654;-74
2021/04/06 12:31:04;;;;;;;7.73;2.77;;;5.50;50.50;;;;;;5073394;28;20547;-73
2021/04/06 12:33:32;;;;;;;5.33;2.50;;;5.70;49.70;;;;;;5073952;28;20263;-74
2021/04/06 12:35:59;;;;;;;10.43;3.03;;;6.00;49.80;;;;;;5072847;28;20562;-74
2021/04/06 12:38:25;;;;;;;5.70;2.80;;;6.20;49.10;;;;;;5073194;28;20583;-73
2021/04/06 12:40:51;;;;;;;4.53;2.43;;;6.30;48.50;;;;;;5060048;28;20437;-73
2021/04/06 12:43:17;;;;;;;5.30;2.70;;;6.10;49.10;;;;;;5073273;28;20417;-74
2021/04/06 12:45:43;;;;;;;5.67;2.23;;;6.00;47.80;;;;;;5073403;28;20622;-75
2021/04/06 12:48:08;;;;;;;6.23;2.33;;;6.40;47.10;;;;;;5073583;28;20255;-72
2021/04/06 12:50:34;;;;;;;3.90;1.93;;;6.20;46.60;;;;;;5073692;28;20232;-74
2021/04/06 12:53:00;;;;;;;4.13;1.90;;;6.50;45.70;;;;;;5073253;28;20582;-72
2021/04/06 12:55:27;;;;;;;4.80;2.37;;;6.30;45.50;;;;;;5058394;28;20421;-73
2021/04/06 12:57:54;;;;;;;4.50;1.83;;;6.20;44.90;;;;;;5073305;28;20176;-72
2021/04/06 13:00:23;;;;;;;3.47;2.23;;;6.20;43.70;;;;;;5073024;28;20410;-75
2021/04/06 13:02:50;;;;;;;5.83;1.77;;;6.30;43.10;;;;;;5073457;28;20444;-73
2021/04/06 13:05:16;;;;;;;5.10;2.00;;;6.10;44.70;;;;;;5072392;28;20422;-73
2021/04/06 13:07:43;;;;;;;5.10;2.23;;;6.20;45.70;;;;;;5069112;28;20481;-73